createdAt,value
2023-02-27T00:00:59.928Z,99563.13
2023-02-27T00:03:27.619Z,99570.13
2023-02-27T00:05:56.783Z,99572.19
2023-02-27T00:08:24.909Z,99570.38
2023-02-27T00:10:52.791Z,99576.09
2023-02-27T00:13:20.669Z,99582.03
2023-02-27T00:15:49.842Z,99582.28
2023-02-27T00:18:18.181Z,99585.41
2023-02-27T00:20:45.793Z,99585.16
2023-02-27T00:23:13.671Z,99584.13
2023-02-27T00:25:41.671Z,99595.00
2023-02-27T00:28:08.918Z,99604.03
2023-02-27T00:30:37.022Z,99604.31
2023-02-27T00:33:05.200Z,99607.41
2023-02-27T00:35:32.943Z,99612.06
2023-02-27T00:38:00.950Z,99613.09
2023-02-27T00:40:28.678Z,99614.94
2023-02-27T00:42:56.258Z,99614.66
2023-02-27T00:45:24.070Z,99604.56
2023-02-27T00:47:51.807Z,99615.94
2023-02-27T00:50:19.467Z,99614.38
2023-02-27T00:52:47.230Z,99620.88
2023-02-27T00:55:15.055Z,99627.59
2023-02-27T00:57:42.976Z,99616.47
2023-02-27T01:00:11.809Z,99619.56
2023-02-27T01:02:39.710Z,99623.22
2023-02-27T01:05:07.475Z,99622.16
2023-02-27T01:07:35.253Z,99627.59
2023-02-27T01:10:03.695Z,99631.47
2023-02-27T01:12:31.394Z,99629.16
2023-02-27T01:14:58.976Z,99628.91
2023-02-27T01:17:26.563Z,99636.94
2023-02-27T01:19:54.178Z,99644.94
2023-02-27T01:22:21.983Z,99643.91
2023-02-27T01:24:49.983Z,99645.44
2023-02-27T01:27:17.985Z,99650.09
2023-02-27T01:29:45.840Z,99655.28
2023-02-27T01:32:13.898Z,99651.66
2023-02-27T01:34:41.992Z,99649.31
2023-02-27T01:37:09.710Z,99644.88
2023-02-27T01:39:37.845Z,99647.97
2023-02-27T01:42:07.622Z,99650.56
2023-02-27T01:45:12.535Z,99650.31
2023-02-27T01:47:43.503Z,99650.81
2023-02-27T01:50:12.327Z,99644.06
2023-02-27T01:52:41.130Z,99638.38
2023-02-27T01:55:09.722Z,99637.09
2023-02-27T01:57:37.718Z,99647.97
2023-02-27T02:00:06.381Z,99644.34
2023-02-27T02:02:43.124Z,99648.25
2023-02-27T02:05:10.975Z,99648.50
2023-02-27T02:07:39.204Z,99657.28
2023-02-27T02:10:07.986Z,99658.81
2023-02-27T02:12:37.703Z,99660.91
2023-02-27T02:15:05.892Z,99659.34
2023-02-27T02:17:48.335Z,99669.19
2023-02-27T02:20:41.308Z,99665.03
2023-02-27T02:23:14.607Z,99659.84
2023-02-27T02:26:06.451Z,99682.09
2023-02-27T02:29:04.184Z,99675.34
2023-02-27T02:31:52.402Z,99683.41
2023-02-27T02:34:49.988Z,99679.50
2023-02-27T02:37:34.368Z,99690.91
2023-02-27T02:40:17.741Z,99693.00
2023-02-27T02:42:55.349Z,99701.28
2023-02-27T02:45:34.354Z,99702.84
2023-02-27T02:48:28.455Z,99699.75
2023-02-27T02:51:02.001Z,99697.41
2023-02-27T02:53:51.280Z,99701.81
2023-02-27T02:56:23.282Z,99693.00
2023-02-27T02:59:11.362Z,99689.88
2023-02-27T03:01:43.831Z,99693.25
2023-02-27T03:04:21.087Z,99699.22
2023-02-27T03:06:54.168Z,99700.78
2023-02-27T03:09:27.961Z,99706.75
2023-02-27T03:11:56.844Z,99699.22
2023-02-27T03:14:38.380Z,99715.25
2023-02-27T03:17:09.891Z,99711.88
2023-02-27T03:19:43.013Z,99718.34
2023-02-27T03:22:16.012Z,99722.00
2023-02-27T03:24:54.767Z,99716.28
2023-02-27T03:27:23.299Z,99720.94
2023-02-27T03:29:53.912Z,99731.31
2023-02-27T03:32:38.762Z,99733.91
2023-02-27T03:35:07.651Z,99728.19
2023-02-27T03:37:58.015Z,99738.00
2023-02-27T03:40:42.392Z,99744.22
2023-02-27T03:43:36.766Z,99744.75
2023-02-27T03:46:23.106Z,99747.91
2023-02-27T03:48:51.020Z,99736.97
2023-02-27T03:51:20.979Z,99742.72
2023-02-27T03:54:05.774Z,99740.66
2023-02-27T03:56:40.037Z,99746.34
2023-02-27T03:59:07.777Z,99748.38
2023-02-27T04:01:35.194Z,99747.63
2023-02-27T04:04:14.784Z,99748.38
2023-02-27T04:07:07.993Z,99754.09
2023-02-27T04:10:07.622Z,99760.56
2023-02-27T04:13:01.417Z,99754.59
2023-02-27T04:16:04.693Z,99754.34
2023-02-27T04:18:51.784Z,99756.69
2023-02-27T04:21:29.907Z,99763.44
2023-02-27T04:24:17.003Z,99759.81
2023-02-27T04:26:55.790Z,99763.94
2023-02-27T04:29:40.427Z,99769.66
2023-02-27T04:32:16.999Z,99775.41
2023-02-27T04:34:50.801Z,99779.03
2023-02-27T04:37:31.799Z,99781.09
2023-02-27T04:40:09.800Z,99776.19
2023-02-27T04:42:45.022Z,99787.34
2023-02-27T04:45:17.077Z,99786.28
2023-02-27T04:47:49.809Z,99788.38
2023-02-27T04:50:24.171Z,99789.94
2023-02-27T04:52:58.362Z,99790.97
2023-02-27T04:55:31.772Z,99787.34
2023-02-27T04:58:10.820Z,99788.59
2023-02-27T05:00:40.814Z,99794.56
2023-02-27T05:03:17.814Z,99799.25
2023-02-27T05:05:47.221Z,99799.25
2023-02-27T05:08:20.750Z,99803.66
2023-02-27T05:11:32.072Z,99802.88
2023-02-27T05:14:04.464Z,99808.06
2023-02-27T05:16:37.727Z,99799.25
2023-02-27T05:19:05.047Z,99810.69
2023-02-27T05:21:38.822Z,99811.19
2023-02-27T05:24:22.946Z,99820.53
2023-02-27T05:27:26.099Z,99829.38
2023-02-27T05:29:56.907Z,99836.59
2023-02-27T05:32:48.827Z,99832.22
2023-02-27T05:35:18.829Z,99830.38
2023-02-27T05:38:16.600Z,99841.00
2023-02-27T05:40:58.799Z,99847.50
2023-02-27T05:43:29.694Z,99848.28
2023-02-27T05:46:01.900Z,99854.75
2023-02-27T05:48:35.913Z,99858.38
2023-02-27T05:51:04.450Z,99856.56
2023-02-27T05:53:35.840Z,99852.16
2023-02-27T05:56:05.889Z,99860.72
2023-02-27T05:58:46.954Z,99868.22
2023-02-27T06:01:14.809Z,99869.81
2023-02-27T06:03:42.756Z,99867.22
2023-02-27T06:06:15.504Z,99874.72
2023-02-27T06:08:43.340Z,99872.38
2023-02-27T06:11:10.724Z,99879.38
2023-02-27T06:13:40.164Z,99881.72
2023-02-27T06:16:11.083Z,99891.56
2023-02-27T06:18:38.850Z,99895.75
2023-02-27T06:21:06.862Z,99896.25
2023-02-27T06:23:34.035Z,99902.47
2023-02-27T06:26:01.154Z,99908.16
2023-02-27T06:28:28.697Z,99904.53
2023-02-27T06:30:57.356Z,99913.88
2023-02-27T06:33:26.161Z,99915.16
2023-02-27T06:35:53.877Z,99911.25
2023-02-27T06:38:21.118Z,99918.28
2023-02-27T06:40:48.515Z,99927.34
2023-02-27T06:43:15.486Z,99929.94
2023-02-27T06:45:42.499Z,99933.56
2023-02-27T06:48:10.412Z,99941.59
2023-02-27T06:50:37.619Z,99960.81
2023-02-27T06:53:04.626Z,99951.22
2023-02-27T06:55:31.736Z,99961.06
2023-02-27T06:57:58.602Z,99959.50
2023-02-27T07:00:25.740Z,99970.91
2023-02-27T07:02:52.850Z,99974.00
2023-02-27T07:05:19.783Z,99971.91
2023-02-27T07:07:47.521Z,99968.53
2023-02-27T07:10:14.543Z,99973.97
2023-02-27T07:12:41.740Z,99979.13
2023-02-27T07:15:09.333Z,99974.16
2023-02-27T07:17:36.078Z,99968.59
2023-02-27T07:20:03.160Z,99980.00
2023-02-27T07:22:30.194Z,99976.31
2023-02-27T07:24:57.121Z,99980.94
2023-02-27T07:27:23.901Z,99985.03
2023-02-27T07:29:50.985Z,99981.31
2023-02-27T07:32:17.908Z,99987.44
2023-02-27T07:34:44.820Z,99995.66
2023-02-27T07:37:11.726Z,99996.72
2023-02-27T07:39:38.653Z,99999.28
2023-02-27T07:42:05.897Z,100007.66
2023-02-27T07:44:33.085Z,100007.06
2023-02-27T07:47:00.242Z,100009.34
2023-02-27T07:49:27.114Z,100010.31
2023-02-27T07:51:54.197Z,100015.06
2023-02-27T07:54:21.786Z,100008.06
2023-02-27T07:56:48.765Z,100014.72
2023-02-27T07:59:15.637Z,100006.72
2023-02-27T08:01:42.629Z,100018.53
2023-02-27T08:04:09.845Z,100010.91
2023-02-27T08:06:36.683Z,100012.25
2023-02-27T08:09:03.992Z,100014.09
2023-02-27T08:11:30.902Z,100014.56
2023-02-27T08:14:01.033Z,100004.63
2023-02-27T08:16:29.126Z,100013.25
2023-02-27T08:18:57.032Z,100019.06
2023-02-27T08:21:24.033Z,100021.19
2023-02-27T08:23:51.086Z,100017.06
2023-02-27T08:26:18.108Z,100025.78
2023-02-27T08:28:46.226Z,100018.25
2023-02-27T08:31:13.628Z,100033.66
2023-02-27T08:33:40.778Z,100032.94
2023-02-27T08:36:08.233Z,100046.56
2023-02-27T08:38:35.230Z,100046.94
2023-02-27T08:41:03.071Z,100054.56
2023-02-27T08:43:30.099Z,100057.88
2023-02-27T08:45:57.082Z,100058.81
2023-02-27T08:48:24.949Z,100066.22
2023-02-27T08:50:52.233Z,100062.78
2023-02-27T08:53:19.260Z,100068.78
2023-02-27T08:55:51.270Z,100072.22
2023-02-27T08:58:18.997Z,100082.16
2023-02-27T09:00:46.640Z,100090.69
2023-02-27T09:03:14.034Z,100091.00
2023-02-27T09:05:42.015Z,100097.59
2023-02-27T09:08:09.152Z,100094.41
2023-02-27T09:10:36.008Z,100094.56
2023-02-27T09:13:02.805Z,100098.81
2023-02-27T09:15:31.853Z,100103.78
2023-02-27T09:18:03.230Z,100097.78
2023-02-27T09:20:31.835Z,100097.94
2023-02-27T09:22:59.898Z,100096.31
2023-02-27T09:25:27.272Z,100097.72
2023-02-27T09:27:54.663Z,100103.28
2023-02-27T09:30:22.836Z,100100.31
2023-02-27T09:32:50.241Z,100105.84
2023-02-27T09:35:17.482Z,100103.34
2023-02-27T09:37:44.839Z,100107.31
2023-02-27T09:40:23.291Z,100105.13
2023-02-27T09:42:51.297Z,100104.16
2023-02-27T09:45:24.786Z,100104.91
2023-02-27T09:48:03.864Z,100104.50
2023-02-27T09:50:39.834Z,100100.09
2023-02-27T09:53:35.871Z,100103.59
2023-02-27T09:56:10.115Z,100100.81
2023-02-27T09:58:55.123Z,100110.19
2023-02-27T10:01:34.515Z,100105.44
2023-02-27T10:04:31.239Z,100106.28
2023-02-27T10:07:05.661Z,100108.06
2023-02-27T10:09:46.419Z,100111.53
2023-02-27T10:12:32.791Z,100108.81
2023-02-27T10:15:24.632Z,100111.34
2023-02-27T10:17:55.026Z,100117.47
2023-02-27T10:20:37.147Z,100116.63
2023-02-27T10:23:16.475Z,100118.72
2023-02-27T10:25:46.904Z,100113.88
2023-02-27T10:28:19.980Z,100116.63
2023-02-27T10:30:55.955Z,100111.03
2023-02-27T10:33:42.552Z,100111.25
2023-02-27T10:36:18.046Z,100112.69
2023-02-27T10:39:03.777Z,100115.13
2023-02-27T10:41:30.826Z,100117.66
2023-02-27T10:43:59.683Z,100117.06
2023-02-27T10:46:30.953Z,100119.69
2023-02-27T10:49:05.482Z,100112.78
2023-02-27T10:51:38.086Z,100109.91
2023-02-27T10:54:21.919Z,100112.28
2023-02-27T10:56:52.238Z,100120.66
2023-02-27T10:59:39.215Z,100115.63
2023-02-27T11:02:21.074Z,100121.91
2023-02-27T11:04:54.113Z,100120.97
2023-02-27T11:07:32.444Z,100121.94
2023-02-27T11:10:26.903Z,100119.91
2023-02-27T11:13:05.566Z,100118.53
2023-02-27T11:15:37.598Z,100124.03
2023-02-27T11:18:25.139Z,100125.31
2023-02-27T11:20:52.079Z,100121.06
2023-02-27T11:23:22.215Z,100125.56
2023-02-27T11:25:49.940Z,100138.66
2023-02-27T11:28:24.175Z,100136.47
2023-02-27T11:31:06.194Z,100132.25
2023-02-27T11:33:39.943Z,100127.53
2023-02-27T11:36:07.430Z,100131.03
2023-02-27T11:38:35.047Z,100128.66
2023-02-27T11:41:04.193Z,100135.47
2023-02-27T11:43:35.246Z,100128.94
2023-02-27T11:46:47.743Z,100128.25
2023-02-27T11:49:33.919Z,100120.09
2023-02-27T11:52:14.212Z,100128.16
2023-02-27T11:54:46.076Z,100126.56
2023-02-27T11:57:32.673Z,100129.66
2023-02-27T12:00:07.352Z,100132.63
2023-02-27T12:02:57.103Z,100136.28
2023-02-27T12:05:33.838Z,100132.59
2023-02-27T12:08:05.863Z,100127.34
2023-02-27T12:10:41.975Z,100125.81
2023-02-27T12:13:17.329Z,100125.66
2023-02-27T12:16:20.322Z,100126.34
2023-02-27T12:19:02.052Z,100133.97
2023-02-27T12:21:32.679Z,100131.72
2023-02-27T12:24:10.139Z,100137.03
2023-02-27T12:26:43.431Z,100139.19
2023-02-27T12:29:26.734Z,100137.28
2023-02-27T12:32:12.159Z,100136.84
2023-02-27T12:34:44.386Z,100144.16
2023-02-27T12:37:13.437Z,100147.72
2023-02-27T12:39:42.629Z,100137.97
2023-02-27T12:42:18.169Z,100144.72
2023-02-27T12:45:09.830Z,100141.19
2023-02-27T12:47:57.810Z,100147.81
2023-02-27T12:50:26.121Z,100149.16
2023-02-27T12:53:02.358Z,100154.44
2023-02-27T12:55:33.866Z,100143.75
2023-02-27T12:58:09.881Z,100156.63
2023-02-27T13:00:50.968Z,100154.25
2023-02-27T13:03:21.004Z,100151.75
2023-02-27T13:05:51.915Z,100151.97
2023-02-27T13:08:49.136Z,100144.34
2023-02-27T13:11:34.012Z,100159.50
2023-02-27T13:14:10.010Z,100168.72
2023-02-27T13:16:42.340Z,100158.31
2023-02-27T13:19:19.492Z,100152.50
2023-02-27T13:21:54.532Z,100160.59
2023-02-27T13:24:25.836Z,100148.28
2023-02-27T13:27:13.232Z,100158.31
2023-02-27T13:29:47.814Z,100165.16
2023-02-27T13:32:32.713Z,100166.28
2023-02-27T13:35:21.600Z,100161.53
2023-02-27T13:37:54.273Z,100159.69
2023-02-27T13:40:39.553Z,100159.44
2023-02-27T13:43:49.876Z,100161.13
2023-02-27T13:46:25.800Z,100171.16
2023-02-27T13:48:56.231Z,100163.16
2023-02-27T13:51:35.406Z,100168.19
2023-02-27T13:54:08.290Z,100163.44
2023-02-27T13:56:36.030Z,100168.38
2023-02-27T13:59:27.264Z,100163.66
2023-02-27T14:02:05.675Z,100163.56
2023-02-27T14:04:54.151Z,100164.28
2023-02-27T14:07:23.962Z,100157.88
2023-02-27T14:09:54.361Z,100153.03
2023-02-27T14:12:43.987Z,100158.56
2023-02-27T14:15:17.763Z,100155.63
2023-02-27T14:17:47.429Z,100146.66
2023-02-27T14:20:18.063Z,100151.22
2023-02-27T14:23:11.508Z,100155.50
2023-02-27T14:25:40.525Z,100160.00
2023-02-27T14:28:31.666Z,100165.03
2023-02-27T14:30:58.539Z,100164.31
2023-02-27T14:33:40.903Z,100169.78
2023-02-27T14:36:22.571Z,100160.44
2023-02-27T14:38:51.084Z,100170.56
2023-02-27T14:41:32.149Z,100176.91
2023-02-27T14:43:59.410Z,100173.56
2023-02-27T14:46:30.304Z,100179.66
2023-02-27T14:49:03.012Z,100165.63
2023-02-27T14:51:35.262Z,100177.22
2023-02-27T14:54:13.171Z,100177.16
2023-02-27T14:56:40.488Z,100177.19
2023-02-27T14:59:43.956Z,100176.13
2023-02-27T15:02:30.928Z,100184.72
2023-02-27T15:05:01.122Z,100196.63
2023-02-27T15:07:33.934Z,100195.53
2023-02-27T15:10:04.785Z,100197.41
2023-02-27T15:12:32.536Z,100199.00
2023-02-27T15:15:01.648Z,100201.50
2023-02-27T15:17:44.349Z,100190.84
2023-02-27T15:20:34.218Z,100199.28
2023-02-27T15:23:18.224Z,100209.63
2023-02-27T15:25:45.547Z,100217.38
2023-02-27T15:28:22.118Z,100213.25
2023-02-27T15:30:51.334Z,100220.53
2023-02-27T15:33:28.716Z,100217.44
2023-02-27T15:35:56.518Z,100223.88
2023-02-27T15:38:24.121Z,100230.28
2023-02-27T15:40:51.834Z,100224.72
2023-02-27T15:43:19.954Z,100229.06
2023-02-27T15:45:47.774Z,100229.13
2023-02-27T15:48:16.375Z,100231.84
2023-02-27T15:50:46.307Z,100234.59
2023-02-27T15:53:22.308Z,100232.72
2023-02-27T15:55:58.140Z,100237.47
2023-02-27T15:58:37.170Z,100247.16
2023-02-27T16:01:20.971Z,100242.19
2023-02-27T16:03:50.378Z,100250.47
2023-02-27T16:06:26.565Z,100248.41
2023-02-27T16:09:00.850Z,100248.63
2023-02-27T16:11:31.388Z,100252.94
2023-02-27T16:13:59.383Z,100254.63
2023-02-27T16:16:35.386Z,100257.41
2023-02-27T16:19:27.263Z,100267.19
2023-02-27T16:22:15.279Z,100265.50
2023-02-27T16:24:43.629Z,100270.56
2023-02-27T16:27:24.366Z,100278.22
2023-02-27T16:29:53.998Z,100275.69
2023-02-27T16:32:25.322Z,100280.94
2023-02-27T16:35:02.815Z,100286.69
2023-02-27T16:37:38.405Z,100293.75
2023-02-27T16:40:27.384Z,100290.66
2023-02-27T16:42:55.405Z,100297.94
2023-02-27T16:45:25.409Z,100298.72
2023-02-27T16:47:58.975Z,100299.75
2023-02-27T16:50:30.420Z,100313.78
2023-02-27T16:52:58.294Z,100317.41
2023-02-27T16:55:26.429Z,100323.88
2023-02-27T16:57:54.424Z,100325.69
2023-02-27T17:00:25.159Z,100319.91
2023-02-27T17:02:53.174Z,100329.19
2023-02-27T17:05:21.011Z,100332.78
2023-02-27T17:07:49.183Z,100331.22
2023-02-27T17:10:19.428Z,100330.66
2023-02-27T17:12:48.319Z,100337.66
2023-02-27T17:15:16.309Z,100342.56
2023-02-27T17:17:45.034Z,100344.88
2023-02-27T17:20:13.965Z,100352.38
2023-02-27T17:22:43.877Z,100348.72
2023-02-27T17:25:12.029Z,100351.00
2023-02-27T17:27:39.284Z,100353.03
2023-02-27T17:30:07.030Z,100356.09
2023-02-27T17:32:35.194Z,100354.19
2023-02-27T17:35:03.002Z,100350.75
2023-02-27T17:37:30.452Z,100353.69
2023-02-27T17:39:58.220Z,100363.47
2023-02-27T17:42:26.201Z,100359.44
2023-02-27T17:44:54.052Z,100358.25
2023-02-27T17:47:22.041Z,100362.84
2023-02-27T17:49:49.911Z,100364.84
2023-02-27T17:52:17.552Z,100366.38
2023-02-27T17:54:45.692Z,100370.47
2023-02-27T17:57:13.565Z,100372.19
2023-02-27T17:59:43.469Z,100376.00
2023-02-27T18:02:14.404Z,100379.00
2023-02-27T18:04:43.229Z,100388.25
2023-02-27T18:07:11.183Z,100390.03
2023-02-27T18:09:40.049Z,100385.50
2023-02-27T18:12:07.561Z,100391.63
2023-02-27T18:14:36.237Z,100391.03
2023-02-27T18:17:04.212Z,100392.75
2023-02-27T18:19:32.666Z,100390.88
2023-02-27T18:22:01.348Z,100399.41
2023-02-27T18:24:29.351Z,100398.09
2023-02-27T18:26:59.571Z,100411.72
2023-02-27T18:29:27.353Z,100410.84
2023-02-27T18:31:55.538Z,100423.66
2023-02-27T18:34:23.943Z,100430.22
2023-02-27T18:36:52.361Z,100441.06
2023-02-27T18:39:20.498Z,100441.75
2023-02-27T18:41:48.594Z,100447.06
2023-02-27T18:44:17.067Z,100439.59
2023-02-27T18:46:44.674Z,100437.00
2023-02-27T18:49:12.500Z,100434.19
2023-02-27T18:51:40.631Z,100439.38
2023-02-27T18:54:11.506Z,100438.75
2023-02-27T18:56:39.256Z,100441.38
2023-02-27T18:59:07.264Z,100442.97
2023-02-27T19:01:37.133Z,100453.03
2023-02-27T19:04:07.407Z,100452.72
2023-02-27T19:06:41.177Z,100466.69
2023-02-27T19:09:11.392Z,100475.66
2023-02-27T19:11:39.244Z,100480.03
2023-02-27T19:14:09.114Z,100477.69
2023-02-27T19:16:37.134Z,100482.53
2023-02-27T19:19:05.275Z,100494.88
2023-02-27T19:21:34.276Z,100493.31
2023-02-27T19:24:02.614Z,100496.94
2023-02-27T19:26:33.391Z,100509.41
2023-02-27T19:29:01.617Z,100504.69
2023-02-27T19:31:30.111Z,100510.34
2023-02-27T19:33:58.261Z,100516.53
2023-02-27T19:36:27.530Z,100522.19
2023-02-27T19:38:56.406Z,100524.13
2023-02-27T19:41:25.193Z,100521.50
2023-02-27T19:43:54.072Z,100516.31
2023-02-27T19:46:26.527Z,100519.44
2023-02-27T19:48:56.657Z,100513.78
2023-02-27T19:51:24.408Z,100516.84
2023-02-27T19:53:52.121Z,100528.22
2023-02-27T19:56:24.343Z,100509.56
2023-02-27T19:58:52.418Z,100513.16
2023-02-27T20:01:28.023Z,100511.94
2023-02-27T20:03:56.678Z,100512.94
2023-02-27T20:06:27.237Z,100516.22
2023-02-27T20:08:57.278Z,100525.56
2023-02-27T20:11:26.319Z,100526.09
2023-02-27T20:13:54.319Z,100536.53
2023-02-27T20:16:24.235Z,100545.16
2023-02-27T20:18:52.121Z,100553.25
2023-02-27T20:21:23.435Z,100563.81
2023-02-27T20:23:54.370Z,100572.53
2023-02-27T20:26:28.083Z,100565.47
2023-02-27T20:28:57.428Z,100563.69
2023-02-27T20:31:27.637Z,100567.81
2023-02-27T20:33:55.432Z,100557.47
2023-02-27T20:36:23.429Z,100564.91
2023-02-27T20:38:51.284Z,100562.22
2023-02-27T20:41:21.429Z,100559.56
2023-02-27T20:43:50.137Z,100555.78
2023-02-27T20:46:23.342Z,100560.34
2023-02-27T20:48:52.159Z,100568.94
2023-02-27T20:51:23.299Z,100581.13
2023-02-27T20:53:53.449Z,100585.06
2023-02-27T20:56:27.020Z,100593.44
2023-02-27T20:58:54.453Z,100598.16
2023-02-27T21:01:22.426Z,100588.19
2023-02-27T21:03:51.412Z,100589.22
2023-02-27T21:06:19.676Z,100588.88
2023-02-27T21:08:55.364Z,100600.13
2023-02-27T21:11:27.795Z,100591.03
2023-02-27T21:14:00.152Z,100590.91
2023-02-27T21:16:27.572Z,100597.44
2023-02-27T21:18:57.169Z,100586.88
2023-02-27T21:25:24.844Z,100598.63
2023-02-27T21:27:52.376Z,100598.75
2023-02-27T21:30:20.369Z,100599.66
2023-02-27T21:32:48.381Z,100591.47
2023-02-27T21:35:16.399Z,100598.75
2023-02-27T21:37:47.164Z,100610.06
2023-02-27T21:40:15.143Z,100604.34
2023-02-27T21:42:46.166Z,100584.16
2023-02-27T21:45:13.470Z,100590.31
2023-02-27T21:47:41.044Z,100591.13
2023-02-27T21:50:14.375Z,100603.22
2023-02-27T21:52:42.414Z,100601.66
2023-02-27T21:55:11.323Z,100605.56
2023-02-27T21:57:41.148Z,100609.50
2023-02-27T22:00:11.605Z,100605.91
2023-02-27T22:02:40.092Z,100609.28
2023-02-27T22:05:07.831Z,100601.19
2023-02-27T22:07:35.340Z,100596.16
2023-02-27T22:10:03.491Z,100597.84
2023-02-27T22:12:31.332Z,100590.22
2023-02-27T22:14:59.181Z,100595.50
2023-02-27T22:17:26.409Z,100599.22
2023-02-27T22:19:54.002Z,100590.47
2023-02-27T22:22:22.185Z,100591.22
2023-02-27T22:24:49.723Z,100592.03
2023-02-27T22:27:17.417Z,100598.31
2023-02-27T22:29:45.443Z,100586.31
2023-02-27T22:32:13.444Z,100586.66
2023-02-27T22:34:41.190Z,100591.94
2023-02-27T22:37:08.346Z,100599.22
2023-02-27T22:39:36.427Z,100588.22
2023-02-27T22:42:04.322Z,100598.88
2023-02-27T22:44:31.857Z,100589.00
2023-02-27T22:46:59.433Z,100594.25
2023-02-27T22:49:26.635Z,100602.34
2023-02-27T22:51:54.444Z,100599.31
2023-02-27T22:54:23.458Z,100595.94
2023-02-27T22:56:52.496Z,100591.31
2023-02-27T22:59:20.740Z,100598.97
2023-02-27T23:01:48.922Z,100593.81
2023-02-27T23:04:17.443Z,100598.97
2023-02-27T23:06:45.446Z,100600.97
2023-02-27T23:09:20.674Z,100597.84
2023-02-27T23:11:48.630Z,100606.16
2023-02-27T23:14:16.639Z,100600.31
2023-02-27T23:16:45.976Z,100603.44
2023-02-27T23:19:19.646Z,100612.56
2023-02-27T23:21:47.689Z,100608.19
2023-02-27T23:24:17.792Z,100620.06
2023-02-27T23:26:50.465Z,100618.63
2023-02-27T23:29:18.779Z,100618.63
2023-02-27T23:31:46.557Z,100624.34
2023-02-27T23:34:14.550Z,100618.84
2023-02-27T23:36:42.443Z,100622.06
2023-02-27T23:39:09.783Z,100622.50
2023-02-27T23:41:37.485Z,100619.00
2023-02-27T23:44:05.144Z,100618.88
2023-02-27T23:46:32.658Z,100616.94
2023-02-27T23:49:01.480Z,100621.75
2023-02-27T23:51:30.596Z,100621.28
2023-02-27T23:53:58.653Z,100625.56
2023-02-27T23:56:29.484Z,100631.84
2023-02-27T23:59:00.240Z,100638.38
